ADDS TAF Board (Experimental) INFO Settings
IDs: Format: Expanded Condensed

KBWI - Baltimore-Washington, MD, US

Issued at 2033 UTC 27 Jul 2016
Updated at 2258 UTC 27 Jul 2016
Time2254Z 27/23Z 28/00Z 28/01Z 28/02Z 28/03Z 28/04Z 28/05Z 28/06Z 28/07Z 28/08Z 28/09Z 28/10Z 28/11Z
Type OBS PRVL PRVL PRVL PRVL PRVL PRVL PRVL PRVL PRVL PRVL PRVL PRVL PRVL
VIS 10 >6 >6 >6 >6 >6 >6 >6 >6 >6 >6 >6 >6 >6
CIG 250 250 250 60 60 60 60 130 130 130 130 130 130 130
Cover BKN BKN BKN BKN BKN BKN BKN BKN BKN BKN BKN BKN BKN BKN
FltCat VFR VFR VFR VFR VFR VFR VFR VFR VFR VFR VFR VFR VFR VFR
WX -- -- -- -- -- -- -- -- -- -- -- -- -- --
WDir 110 120 120 180 180 180 180 VRB VRB VRB VRB VRB VRB VRB
WSpd 6 4 4 4 4 4 4 0 0 0 0 0 0 0
WGst -- -- -- -- -- -- -- -- -- -- -- -- -- --
R04/22
XWnd -6 -4 -4 -2 -2 -2 -2 VRB VRB VRB VRB VRB VRB VRB
HWnd 1 0 0 -3 -3 -3 -3 VRB VRB VRB VRB VRB VRB VRB
R10/28
XWnd -2 -2 -2 -4 -4 -4 -4 VRB VRB VRB VRB VRB VRB VRB
HWnd 6 4 4 0 0 0 0 VRB VRB VRB VRB VRB VRB VRB
R15/33
XWnd 3 2 2 -2 -2 -2 -2 VRB VRB VRB VRB VRB VRB VRB
HWnd 5 4 4 3 3 3 3 VRB VRB VRB VRB VRB VRB VRB

Raw TAF
KBWI 272033Z 2721/2824 12004KT P6SM SCT060 BKN250
  FM280100 18004KT P6SM BKN060
  FM280500 00000KT P6SM SCT060 BKN130
  FM282200 18006KT P6SM OVC050


Raw METAR
KBWI 272254Z 11006KT 10SM FEW065 FEW160 BKN250 32/20 A2988 RMK AO2 SLP117 T03220200
KBWI 272154Z VRB06KT 10SM FEW070 SCT160 BKN250 34/18 A2989 RMK AO2 SLP120 T03440178
KBWI 272054Z VRB04KT 10SM SCT060 SCT100 BKN250 35/18 A2989 RMK AO2 SLP121 T03500183 56014
KBWI 271954Z VRB03KT 10SM SCT060 SCT100 BKN250 33/18 A2990 RMK AO2 SLP125 T03330183

METAR Board
Radar Display
Forecast Discussion

TAF Board Legend

Potential Impact
Threat None Slight Moderate High
Visibility (sm) ≥5.1 5.1>X≥3 3>X≥1 <1
Ceiling (100 ft) ≥30.1 30.1>X≥10 10>X≥5 <5
Wind Speed (kt) <10 10≤X<20 20≤X<30 ≥30
Wind Gust (kt) <15 15≤X<25 25≤X<35 ≥35
Weather No Wx Reported VCTS,-TS,-FZRA,SN TS,FZRA +TS,+FZRA,+SN